< < Back
Terminal Aerodrome Forecast


Current Version              Previous Versions:   1  2  3  4  5  6  7  8  9  

Terminal Aerodrome Forecast

866
FTUS44 KMRX 301720
TAFTYS
TAF
KTYS 301720Z 3018/3118 04009KT P6SM SCT250
     FM310600 04003KT P6SM BKN250
     FM311600 04006KT P6SM BKN100=

Latest METAR

178
SAUS80 KWBC 302100
MTRTYS
METAR KTYS 302053Z 35005KT 10SM FEW040 OVC250 25/12 A3008 RMK AO2 SLP177
T02500122 56007


USA.gov is the U.S. government's official web portal to all federal, state and local government web resources and services.